<?xml version="1.0" encoding="UTF-8" standalone="no" ?>
<gpx xmlns="http://www.topografix.com/GPX/1/1" creator="CompeGPS" version="1.1" xmlns:xsi="http://www.w3.org/2001/XMLSchema-instance" xsi:schemaLocation="http://www.topografix.com/GPX/1/1 http://www.topografix.com/GPX/1/1/gpx.xsd http://www.garmin.com/xmlschemas/GpxExtensions/v3 http://www.garmin.com/xmlschemas/GpxExtensionsv3.xsd http://www.garmin.com/xmlschemas/TrackPointExtension/v1 http://www.garmin.com/xmlschemas/TrackPointExtensionv1.xsd" xmlns:gpxtpx="http://www.garmin.com/xmlschemas/TrackPointExtension/v1">
  <metadata>
    <link href="http://www.compegps.com">
      <text>CompeGPS TEAM, SL</text>
    </link>
    <time>2014-03-22T09:28:19Z</time>
    <bounds maxlat="43.447022" maxlon="1.614166" minlat="43.433431" minlon="1.588237"/>
  </metadata>
<wpt lat="43.438201" lon="1.596922">
  <ele>170</ele>
  <name>Ayguevives</name>
</wpt>
<wpt lat="43.434932" lon="1.589479">
  <ele>225</ele>
  <name>Chemin du Campares</name>
</wpt>
<wpt lat="43.438679" lon="1.588241">
  <ele>267</ele>
  <name>Croix d En Mauran</name>
</wpt>
<wpt lat="43.443139" lon="1.600275">
  <ele>166</ele>
  <name>En Causse</name>
</wpt>
<wpt lat="43.447021" lon="1.599023">
  <ele>165</ele>
  <name>Ecluse du Ticaille</name>
</wpt>
<wpt lat="43.439601" lon="1.612430">
  <ele>167</ele>
  <name>Ecluse du Sanglier</name>
</wpt>
<trk>
    <name>Ayguevives - canal du midi</name>
    <trkseg>
      <trkpt lat="43.438201" lon="1.596922">
        <ele>177.6</ele>
        <time>2014-03-21T12:45:04Z</time>
        <name>Ayguevives</name>
      </trkpt>
      <trkpt lat="43.438110" lon="1.596881">
        <ele>177.9</ele>
        <time>2014-03-21T12:45:35Z</time>
      </trkpt>
      <trkpt lat="43.438089" lon="1.596785">
        <ele>177.8</ele>
        <time>2014-03-21T12:45:49Z</time>
      </trkpt>
      <trkpt lat="43.438127" lon="1.596648">
        <ele>177.9</ele>
        <time>2014-03-21T12:45:59Z</time>
      </trkpt>
      <trkpt lat="43.438106" lon="1.596511">
        <ele>178.5</ele>
        <time>2014-03-21T12:46:11Z</time>
      </trkpt>
      <trkpt lat="43.438021" lon="1.596467">
        <ele>178.3</ele>
        <time>2014-03-21T12:48:23Z</time>
      </trkpt>
      <trkpt lat="43.437934" lon="1.596415">
        <ele>177.8</ele>
        <time>2014-03-21T12:48:34Z</time>
      </trkpt>
      <trkpt lat="43.437769" lon="1.596346">
        <ele>177.6</ele>
        <time>2014-03-21T12:48:45Z</time>
      </trkpt>
      <trkpt lat="43.437666" lon="1.596231">
        <ele>177.5</ele>
        <time>2014-03-21T12:48:55Z</time>
      </trkpt>
      <trkpt lat="43.437561" lon="1.596153">
        <ele>178.6</ele>
        <time>2014-03-21T12:49:07Z</time>
      </trkpt>
      <trkpt lat="43.437440" lon="1.596130">
        <ele>178.5</ele>
        <time>2014-03-21T12:49:20Z</time>
      </trkpt>
      <trkpt lat="43.437316" lon="1.596116">
        <ele>178.4</ele>
        <time>2014-03-21T12:49:33Z</time>
      </trkpt>
      <trkpt lat="43.437220" lon="1.596079">
        <ele>178.7</ele>
        <time>2014-03-21T12:49:54Z</time>
      </trkpt>
      <trkpt lat="43.437105" lon="1.595945">
        <ele>178.9</ele>
        <time>2014-03-21T12:50:05Z</time>
      </trkpt>
      <trkpt lat="43.437053" lon="1.595824">
        <ele>179.2</ele>
        <time>2014-03-21T12:50:15Z</time>
      </trkpt>
      <trkpt lat="43.436972" lon="1.595637">
        <ele>179.7</ele>
        <time>2014-03-21T12:51:06Z</time>
      </trkpt>
      <trkpt lat="43.436832" lon="1.595582">
        <ele>179.7</ele>
        <time>2014-03-21T12:51:18Z</time>
      </trkpt>
      <trkpt lat="43.436718" lon="1.595508">
        <ele>179.7</ele>
        <time>2014-03-21T12:51:25Z</time>
      </trkpt>
      <trkpt lat="43.436588" lon="1.595454">
        <ele>179.8</ele>
        <time>2014-03-21T12:51:37Z</time>
      </trkpt>
      <trkpt lat="43.436452" lon="1.595349">
        <ele>179.5</ele>
        <time>2014-03-21T12:51:50Z</time>
      </trkpt>
      <trkpt lat="43.436353" lon="1.595273">
        <ele>179.6</ele>
        <time>2014-03-21T12:51:57Z</time>
      </trkpt>
      <trkpt lat="43.436253" lon="1.595223">
        <ele>179.7</ele>
        <time>2014-03-21T12:52:06Z</time>
      </trkpt>
      <trkpt lat="43.436157" lon="1.595151">
        <ele>179.7</ele>
        <time>2014-03-21T12:52:14Z</time>
      </trkpt>
      <trkpt lat="43.436077" lon="1.595098">
        <ele>179.8</ele>
        <time>2014-03-21T12:52:21Z</time>
      </trkpt>
      <trkpt lat="43.435950" lon="1.595073">
        <ele>179.8</ele>
        <time>2014-03-21T12:52:35Z</time>
      </trkpt>
      <trkpt lat="43.435820" lon="1.594979">
        <ele>179.1</ele>
        <time>2014-03-21T12:52:47Z</time>
      </trkpt>
      <trkpt lat="43.435709" lon="1.594935">
        <ele>179.1</ele>
        <time>2014-03-21T12:52:54Z</time>
      </trkpt>
      <trkpt lat="43.435595" lon="1.594892">
        <ele>178.9</ele>
        <time>2014-03-21T12:53:01Z</time>
      </trkpt>
      <trkpt lat="43.435475" lon="1.594840">
        <ele>179.3</ele>
        <time>2014-03-21T12:53:09Z</time>
      </trkpt>
      <trkpt lat="43.435365" lon="1.594829">
        <ele>179.3</ele>
        <time>2014-03-21T12:53:17Z</time>
      </trkpt>
      <trkpt lat="43.435234" lon="1.594851">
        <ele>178.7</ele>
        <time>2014-03-21T12:53:30Z</time>
      </trkpt>
      <trkpt lat="43.435163" lon="1.594828">
        <ele>178.5</ele>
        <time>2014-03-21T12:54:03Z</time>
      </trkpt>
      <trkpt lat="43.435120" lon="1.594892">
        <ele>178.1</ele>
        <time>2014-03-21T12:54:18Z</time>
      </trkpt>
      <trkpt lat="43.435035" lon="1.594874">
        <ele>176.8</ele>
        <time>2014-03-21T12:54:27Z</time>
      </trkpt>
      <trkpt lat="43.434933" lon="1.594863">
        <ele>176.8</ele>
        <time>2014-03-21T12:54:36Z</time>
      </trkpt>
      <trkpt lat="43.434817" lon="1.594879">
        <ele>176.8</ele>
        <time>2014-03-21T12:54:45Z</time>
      </trkpt>
      <trkpt lat="43.434699" lon="1.594846">
        <ele>176.9</ele>
        <time>2014-03-21T12:54:53Z</time>
      </trkpt>
      <trkpt lat="43.434590" lon="1.594797">
        <ele>177.1</ele>
        <time>2014-03-21T12:55:00Z</time>
      </trkpt>
      <trkpt lat="43.434486" lon="1.594836">
        <ele>177.3</ele>
        <time>2014-03-21T12:55:07Z</time>
      </trkpt>
      <trkpt lat="43.434386" lon="1.594871">
        <ele>177.4</ele>
        <time>2014-03-21T12:55:15Z</time>
      </trkpt>
      <trkpt lat="43.434282" lon="1.594913">
        <ele>177.7</ele>
        <time>2014-03-21T12:55:23Z</time>
      </trkpt>
      <trkpt lat="43.434171" lon="1.594931">
        <ele>177.5</ele>
        <time>2014-03-21T12:55:31Z</time>
      </trkpt>
      <trkpt lat="43.434067" lon="1.594918">
        <ele>177.4</ele>
        <time>2014-03-21T12:55:38Z</time>
      </trkpt>
      <trkpt lat="43.434029" lon="1.594831">
        <ele>176.9</ele>
        <time>2014-03-21T12:55:47Z</time>
      </trkpt>
      <trkpt lat="43.434001" lon="1.594662">
        <ele>179.0</ele>
        <time>2014-03-21T12:56:02Z</time>
      </trkpt>
      <trkpt lat="43.433963" lon="1.594514">
        <ele>180.3</ele>
        <time>2014-03-21T12:56:14Z</time>
      </trkpt>
      <trkpt lat="43.433896" lon="1.594335">
        <ele>183.5</ele>
        <time>2014-03-21T12:56:30Z</time>
      </trkpt>
      <trkpt lat="43.433821" lon="1.594185">
        <ele>187.5</ele>
        <time>2014-03-21T12:56:50Z</time>
      </trkpt>
      <trkpt lat="43.433745" lon="1.594067">
        <ele>190.0</ele>
        <time>2014-03-21T12:57:05Z</time>
      </trkpt>
      <trkpt lat="43.433643" lon="1.593976">
        <ele>193.9</ele>
        <time>2014-03-21T12:57:22Z</time>
      </trkpt>
      <trkpt lat="43.433533" lon="1.593879">
        <ele>196.0</ele>
        <time>2014-03-21T12:57:34Z</time>
      </trkpt>
      <trkpt lat="43.433458" lon="1.593776">
        <ele>198.0</ele>
        <time>2014-03-21T12:57:44Z</time>
      </trkpt>
      <trkpt lat="43.433441" lon="1.593669">
        <ele>201.8</ele>
        <time>2014-03-21T12:58:08Z</time>
      </trkpt>
      <trkpt lat="43.433431" lon="1.593458">
        <ele>205.4</ele>
        <time>2014-03-21T12:58:25Z</time>
      </trkpt>
      <trkpt lat="43.433436" lon="1.593214">
        <ele>208.5</ele>
        <time>2014-03-21T12:58:47Z</time>
      </trkpt>
      <trkpt lat="43.433446" lon="1.593004">
        <ele>210.5</ele>
        <time>2014-03-21T12:59:31Z</time>
      </trkpt>
      <trkpt lat="43.433466" lon="1.592787">
        <ele>212.4</ele>
        <time>2014-03-21T13:09:29Z</time>
      </trkpt>
      <trkpt lat="43.433505" lon="1.592624">
        <ele>214.2</ele>
        <time>2014-03-21T13:09:55Z</time>
      </trkpt>
      <trkpt lat="43.433520" lon="1.592454">
        <ele>215.5</ele>
        <time>2014-03-21T13:10:05Z</time>
      </trkpt>
      <trkpt lat="43.433582" lon="1.592267">
        <ele>217.1</ele>
        <time>2014-03-21T13:10:16Z</time>
      </trkpt>
      <trkpt lat="43.433565" lon="1.592230">
        <ele>215.0</ele>
        <time>2014-03-21T13:10:42Z</time>
      </trkpt>
      <trkpt lat="43.433610" lon="1.592131">
        <ele>216.2</ele>
        <time>2014-03-21T13:11:08Z</time>
      </trkpt>
      <trkpt lat="43.433637" lon="1.591973">
        <ele>216.3</ele>
        <time>2014-03-21T13:11:21Z</time>
      </trkpt>
      <trkpt lat="43.433675" lon="1.591791">
        <ele>216.9</ele>
        <time>2014-03-21T13:11:32Z</time>
      </trkpt>
      <trkpt lat="43.433717" lon="1.591633">
        <ele>217.2</ele>
        <time>2014-03-21T13:11:44Z</time>
      </trkpt>
      <trkpt lat="43.433760" lon="1.591449">
        <ele>217.3</ele>
        <time>2014-03-21T13:11:54Z</time>
      </trkpt>
      <trkpt lat="43.433798" lon="1.591292">
        <ele>217.5</ele>
        <time>2014-03-21T13:12:02Z</time>
      </trkpt>
      <trkpt lat="43.433823" lon="1.591153">
        <ele>218.3</ele>
        <time>2014-03-21T13:12:09Z</time>
      </trkpt>
      <trkpt lat="43.433864" lon="1.591020">
        <ele>218.9</ele>
        <time>2014-03-21T13:12:18Z</time>
      </trkpt>
      <trkpt lat="43.433916" lon="1.590903">
        <ele>219.0</ele>
        <time>2014-03-21T13:12:26Z</time>
      </trkpt>
      <trkpt lat="43.433986" lon="1.590793">
        <ele>219.2</ele>
        <time>2014-03-21T13:12:34Z</time>
      </trkpt>
      <trkpt lat="43.434040" lon="1.590690">
        <ele>219.6</ele>
        <time>2014-03-21T13:13:10Z</time>
      </trkpt>
      <trkpt lat="43.434110" lon="1.590597">
        <ele>219.9</ele>
        <time>2014-03-21T13:13:18Z</time>
      </trkpt>
      <trkpt lat="43.434191" lon="1.590499">
        <ele>221.0</ele>
        <time>2014-03-21T13:13:27Z</time>
      </trkpt>
      <trkpt lat="43.434259" lon="1.590388">
        <ele>222.0</ele>
        <time>2014-03-21T13:13:36Z</time>
      </trkpt>
      <trkpt lat="43.434328" lon="1.590253">
        <ele>223.3</ele>
        <time>2014-03-21T13:13:46Z</time>
      </trkpt>
      <trkpt lat="43.434389" lon="1.590143">
        <ele>224.4</ele>
        <time>2014-03-21T13:13:54Z</time>
      </trkpt>
      <trkpt lat="43.434455" lon="1.590025">
        <ele>225.4</ele>
        <time>2014-03-21T13:14:05Z</time>
      </trkpt>
      <trkpt lat="43.434538" lon="1.589924">
        <ele>226.1</ele>
        <time>2014-03-21T13:14:16Z</time>
      </trkpt>
      <trkpt lat="43.434610" lon="1.589803">
        <ele>227.0</ele>
        <time>2014-03-21T13:14:26Z</time>
      </trkpt>
      <trkpt lat="43.434685" lon="1.589705">
        <ele>227.9</ele>
        <time>2014-03-21T13:14:35Z</time>
      </trkpt>
      <trkpt lat="43.434752" lon="1.589572">
        <ele>228.7</ele>
        <time>2014-03-21T13:14:45Z</time>
      </trkpt>
      <trkpt lat="43.434828" lon="1.589484">
        <ele>229.5</ele>
        <time>2014-03-21T13:14:53Z</time>
      </trkpt>
      <trkpt lat="43.434932" lon="1.589479">
        <ele>232.0</ele>
        <time>2014-03-21T13:15:08Z</time>
        <name>Chemin du Campares</name> 
      </trkpt>
      <trkpt lat="43.435030" lon="1.589463">
        <ele>232.8</ele>
        <time>2014-03-21T13:15:18Z</time>
      </trkpt>
      <trkpt lat="43.435075" lon="1.589492">
        <ele>233.8</ele>
        <time>2014-03-21T13:15:41Z</time>
      </trkpt>
      <trkpt lat="43.435162" lon="1.589564">
        <ele>235.5</ele>
        <time>2014-03-21T13:15:57Z</time>
      </trkpt>
      <trkpt lat="43.435231" lon="1.589655">
        <ele>236.0</ele>
        <time>2014-03-21T13:16:06Z</time>
      </trkpt>
      <trkpt lat="43.435307" lon="1.589731">
        <ele>236.9</ele>
        <time>2014-03-21T13:16:15Z</time>
      </trkpt>
      <trkpt lat="43.435400" lon="1.589834">
        <ele>238.8</ele>
        <time>2014-03-21T13:16:25Z</time>
      </trkpt>
      <trkpt lat="43.435500" lon="1.589898">
        <ele>240.6</ele>
        <time>2014-03-21T13:16:35Z</time>
      </trkpt>
      <trkpt lat="43.435624" lon="1.589944">
        <ele>241.5</ele>
        <time>2014-03-21T13:16:47Z</time>
      </trkpt>
      <trkpt lat="43.435756" lon="1.589870">
        <ele>241.6</ele>
        <time>2014-03-21T13:16:57Z</time>
      </trkpt>
      <trkpt lat="43.435774" lon="1.589724">
        <ele>241.9</ele>
        <time>2014-03-21T13:17:06Z</time>
      </trkpt>
      <trkpt lat="43.435799" lon="1.589591">
        <ele>242.5</ele>
        <time>2014-03-21T13:17:15Z</time>
      </trkpt>
      <trkpt lat="43.435827" lon="1.589448">
        <ele>242.9</ele>
        <time>2014-03-21T13:17:23Z</time>
      </trkpt>
      <trkpt lat="43.435884" lon="1.589350">
        <ele>243.4</ele>
        <time>2014-03-21T13:17:31Z</time>
      </trkpt>
      <trkpt lat="43.435982" lon="1.589334">
        <ele>244.0</ele>
        <time>2014-03-21T13:17:39Z</time>
      </trkpt>
      <trkpt lat="43.436079" lon="1.589349">
        <ele>245.1</ele>
        <time>2014-03-21T13:17:47Z</time>
      </trkpt>
      <trkpt lat="43.436173" lon="1.589311">
        <ele>245.7</ele>
        <time>2014-03-21T13:17:54Z</time>
      </trkpt>
      <trkpt lat="43.436276" lon="1.589311">
        <ele>246.4</ele>
        <time>2014-03-21T13:18:02Z</time>
      </trkpt>
      <trkpt lat="43.436378" lon="1.589321">
        <ele>247.2</ele>
        <time>2014-03-21T13:18:10Z</time>
      </trkpt>
      <trkpt lat="43.436482" lon="1.589332">
        <ele>247.9</ele>
        <time>2014-03-21T13:18:17Z</time>
      </trkpt>
      <trkpt lat="43.436584" lon="1.589333">
        <ele>248.8</ele>
        <time>2014-03-21T13:18:25Z</time>
      </trkpt>
      <trkpt lat="43.436695" lon="1.589340">
        <ele>249.7</ele>
        <time>2014-03-21T13:18:32Z</time>
      </trkpt>
      <trkpt lat="43.436799" lon="1.589363">
        <ele>250.2</ele>
        <time>2014-03-21T13:18:40Z</time>
      </trkpt>
      <trkpt lat="43.436898" lon="1.589365">
        <ele>250.9</ele>
        <time>2014-03-21T13:18:48Z</time>
      </trkpt>
      <trkpt lat="43.436997" lon="1.589392">
        <ele>252.0</ele>
        <time>2014-03-21T13:18:55Z</time>
      </trkpt>
      <trkpt lat="43.437095" lon="1.589417">
        <ele>252.9</ele>
        <time>2014-03-21T13:19:01Z</time>
      </trkpt>
      <trkpt lat="43.437191" lon="1.589423">
        <ele>253.4</ele>
        <time>2014-03-21T13:19:08Z</time>
      </trkpt>
      <trkpt lat="43.437294" lon="1.589445">
        <ele>254.2</ele>
        <time>2014-03-21T13:19:15Z</time>
      </trkpt>
      <trkpt lat="43.437389" lon="1.589459">
        <ele>254.4</ele>
        <time>2014-03-21T13:19:21Z</time>
      </trkpt>
      <trkpt lat="43.437476" lon="1.589457">
        <ele>255.2</ele>
        <time>2014-03-21T13:19:26Z</time>
      </trkpt>
      <trkpt lat="43.437563" lon="1.589473">
        <ele>255.8</ele>
        <time>2014-03-21T13:19:33Z</time>
      </trkpt>
      <trkpt lat="43.437656" lon="1.589474">
        <ele>256.1</ele>
        <time>2014-03-21T13:19:41Z</time>
      </trkpt>
      <trkpt lat="43.437755" lon="1.589493">
        <ele>256.7</ele>
        <time>2014-03-21T13:19:49Z</time>
      </trkpt>
      <trkpt lat="43.437850" lon="1.589519">
        <ele>256.6</ele>
        <time>2014-03-21T13:19:57Z</time>
      </trkpt>
      <trkpt lat="43.437948" lon="1.589565">
        <ele>256.1</ele>
        <time>2014-03-21T13:20:05Z</time>
      </trkpt>
      <trkpt lat="43.438047" lon="1.589613">
        <ele>255.6</ele>
        <time>2014-03-21T13:20:13Z</time>
      </trkpt>
      <trkpt lat="43.438135" lon="1.589638">
        <ele>255.4</ele>
        <time>2014-03-21T13:20:20Z</time>
      </trkpt>
      <trkpt lat="43.438235" lon="1.589637">
        <ele>255.4</ele>
        <time>2014-03-21T13:20:28Z</time>
      </trkpt>
      <trkpt lat="43.438269" lon="1.589504">
        <ele>255.3</ele>
        <time>2014-03-21T13:20:35Z</time>
      </trkpt>
      <trkpt lat="43.438292" lon="1.589355">
        <ele>256.7</ele>
        <time>2014-03-21T13:20:44Z</time>
      </trkpt>
      <trkpt lat="43.438322" lon="1.589223">
        <ele>258.2</ele>
        <time>2014-03-21T13:20:53Z</time>
      </trkpt>
      <trkpt lat="43.438356" lon="1.589087">
        <ele>260.5</ele>
        <time>2014-03-21T13:21:02Z</time>
      </trkpt>
      <trkpt lat="43.438393" lon="1.588945">
        <ele>263.5</ele>
        <time>2014-03-21T13:21:13Z</time>
      </trkpt>
      <trkpt lat="43.438429" lon="1.588815">
        <ele>265.4</ele>
        <time>2014-03-21T13:21:22Z</time>
      </trkpt>
      <trkpt lat="43.438465" lon="1.588697">
        <ele>267.2</ele>
        <time>2014-03-21T13:21:30Z</time>
      </trkpt>
      <trkpt lat="43.438517" lon="1.588568">
        <ele>269.8</ele>
        <time>2014-03-21T13:21:38Z</time>
      </trkpt>
      <trkpt lat="43.438564" lon="1.588461">
        <ele>271.7</ele>
        <time>2014-03-21T13:21:46Z</time>
      </trkpt>
      <trkpt lat="43.438631" lon="1.588363">
        <ele>272.7</ele>
        <time>2014-03-21T13:21:55Z</time>
      </trkpt>
      <trkpt lat="43.438679" lon="1.588241">
        <ele>273.8</ele>
        <time>2014-03-21T13:22:13Z</time>
        <name>Croix d En Mauran</name>
      </trkpt>
      <trkpt lat="43.438696" lon="1.588237">
        <ele>275.1</ele>
        <time>2014-03-21T13:23:04Z</time>
      </trkpt>
      <trkpt lat="43.438625" lon="1.588376">
        <ele>274.0</ele>
        <time>2014-03-21T13:23:17Z</time>
      </trkpt>
      <trkpt lat="43.438554" lon="1.588497">
        <ele>274.0</ele>
        <time>2014-03-21T13:23:23Z</time>
      </trkpt>
      <trkpt lat="43.438505" lon="1.588623">
        <ele>273.3</ele>
        <time>2014-03-21T13:23:33Z</time>
      </trkpt>
      <trkpt lat="43.438469" lon="1.588741">
        <ele>271.9</ele>
        <time>2014-03-21T13:23:42Z</time>
      </trkpt>
      <trkpt lat="43.438443" lon="1.588865">
        <ele>269.9</ele>
        <time>2014-03-21T13:23:51Z</time>
      </trkpt>
      <trkpt lat="43.438407" lon="1.588987">
        <ele>268.2</ele>
        <time>2014-03-21T13:24:01Z</time>
      </trkpt>
      <trkpt lat="43.438380" lon="1.589123">
        <ele>265.5</ele>
        <time>2014-03-21T13:24:12Z</time>
      </trkpt>
      <trkpt lat="43.438346" lon="1.589238">
        <ele>263.1</ele>
        <time>2014-03-21T13:24:22Z</time>
      </trkpt>
      <trkpt lat="43.438314" lon="1.589366">
        <ele>261.0</ele>
        <time>2014-03-21T13:24:32Z</time>
      </trkpt>
      <trkpt lat="43.438265" lon="1.589498">
        <ele>259.4</ele>
        <time>2014-03-21T13:24:40Z</time>
      </trkpt>
      <trkpt lat="43.438245" lon="1.589652">
        <ele>257.8</ele>
        <time>2014-03-21T13:24:47Z</time>
      </trkpt>
      <trkpt lat="43.438305" lon="1.589733">
        <ele>256.7</ele>
        <time>2014-03-21T13:24:53Z</time>
      </trkpt>
      <trkpt lat="43.438416" lon="1.589765">
        <ele>256.5</ele>
        <time>2014-03-21T13:25:01Z</time>
      </trkpt>
      <trkpt lat="43.438518" lon="1.589842">
        <ele>255.7</ele>
        <time>2014-03-21T13:25:11Z</time>
      </trkpt>
      <trkpt lat="43.438597" lon="1.589928">
        <ele>254.9</ele>
        <time>2014-03-21T13:25:19Z</time>
      </trkpt>
      <trkpt lat="43.438683" lon="1.590021">
        <ele>254.3</ele>
        <time>2014-03-21T13:25:26Z</time>
      </trkpt>
      <trkpt lat="43.438757" lon="1.590124">
        <ele>253.2</ele>
        <time>2014-03-21T13:25:35Z</time>
      </trkpt>
      <trkpt lat="43.438837" lon="1.590216">
        <ele>252.1</ele>
        <time>2014-03-21T13:25:43Z</time>
      </trkpt>
      <trkpt lat="43.438866" lon="1.590330">
        <ele>250.9</ele>
        <time>2014-03-21T13:25:52Z</time>
      </trkpt>
      <trkpt lat="43.438837" lon="1.590445">
        <ele>249.6</ele>
        <time>2014-03-21T13:25:59Z</time>
      </trkpt>
      <trkpt lat="43.438867" lon="1.590585">
        <ele>248.3</ele>
        <time>2014-03-21T13:26:08Z</time>
      </trkpt>
      <trkpt lat="43.438877" lon="1.590726">
        <ele>246.7</ele>
        <time>2014-03-21T13:26:16Z</time>
      </trkpt>
      <trkpt lat="43.438864" lon="1.590863">
        <ele>244.6</ele>
        <time>2014-03-21T13:26:24Z</time>
      </trkpt>
      <trkpt lat="43.438861" lon="1.590980">
        <ele>242.8</ele>
        <time>2014-03-21T13:26:32Z</time>
      </trkpt>
      <trkpt lat="43.438856" lon="1.591118">
        <ele>241.3</ele>
        <time>2014-03-21T13:26:40Z</time>
      </trkpt>
      <trkpt lat="43.438852" lon="1.591254">
        <ele>239.8</ele>
        <time>2014-03-21T13:26:48Z</time>
      </trkpt>
      <trkpt lat="43.438898" lon="1.591356">
        <ele>238.1</ele>
        <time>2014-03-21T13:26:57Z</time>
      </trkpt>
      <trkpt lat="43.438994" lon="1.591430">
        <ele>235.9</ele>
        <time>2014-03-21T13:27:07Z</time>
      </trkpt>
      <trkpt lat="43.439059" lon="1.591511">
        <ele>233.9</ele>
        <time>2014-03-21T13:27:16Z</time>
      </trkpt>
      <trkpt lat="43.439141" lon="1.591582">
        <ele>231.6</ele>
        <time>2014-03-21T13:27:25Z</time>
      </trkpt>
      <trkpt lat="43.439237" lon="1.591657">
        <ele>229.1</ele>
        <time>2014-03-21T13:27:35Z</time>
      </trkpt>
      <trkpt lat="43.439322" lon="1.591741">
        <ele>226.9</ele>
        <time>2014-03-21T13:27:45Z</time>
      </trkpt>
      <trkpt lat="43.439367" lon="1.591867">
        <ele>224.9</ele>
        <time>2014-03-21T13:27:54Z</time>
      </trkpt>
      <trkpt lat="43.439370" lon="1.591982">
        <ele>223.4</ele>
        <time>2014-03-21T13:28:02Z</time>
      </trkpt>
      <trkpt lat="43.439319" lon="1.592120">
        <ele>222.2</ele>
        <time>2014-03-21T13:28:11Z</time>
      </trkpt>
      <trkpt lat="43.439330" lon="1.592266">
        <ele>220.8</ele>
        <time>2014-03-21T13:28:19Z</time>
      </trkpt>
      <trkpt lat="43.439406" lon="1.592350">
        <ele>219.7</ele>
        <time>2014-03-21T13:28:26Z</time>
      </trkpt>
      <trkpt lat="43.439480" lon="1.592393">
        <ele>217.3</ele>
        <time>2014-03-21T13:28:35Z</time>
      </trkpt>
      <trkpt lat="43.439563" lon="1.592464">
        <ele>214.7</ele>
        <time>2014-03-21T13:28:44Z</time>
      </trkpt>
      <trkpt lat="43.439656" lon="1.592510">
        <ele>212.0</ele>
        <time>2014-03-21T13:28:54Z</time>
      </trkpt>
      <trkpt lat="43.439751" lon="1.592567">
        <ele>209.9</ele>
        <time>2014-03-21T13:29:04Z</time>
      </trkpt>
      <trkpt lat="43.439848" lon="1.592633">
        <ele>207.0</ele>
        <time>2014-03-21T13:29:14Z</time>
      </trkpt>
      <trkpt lat="43.439930" lon="1.592699">
        <ele>205.0</ele>
        <time>2014-03-21T13:29:23Z</time>
      </trkpt>
      <trkpt lat="43.440018" lon="1.592783">
        <ele>202.8</ele>
        <time>2014-03-21T13:29:34Z</time>
      </trkpt>
      <trkpt lat="43.440102" lon="1.592875">
        <ele>202.0</ele>
        <time>2014-03-21T13:34:00Z</time>
      </trkpt>
      <trkpt lat="43.440191" lon="1.592957">
        <ele>200.2</ele>
        <time>2014-03-21T13:34:09Z</time>
      </trkpt>
      <trkpt lat="43.440258" lon="1.593083">
        <ele>199.0</ele>
        <time>2014-03-21T13:34:18Z</time>
      </trkpt>
      <trkpt lat="43.440320" lon="1.593203">
        <ele>197.8</ele>
        <time>2014-03-21T13:34:25Z</time>
      </trkpt>
      <trkpt lat="43.440423" lon="1.593302">
        <ele>196.1</ele>
        <time>2014-03-21T13:34:36Z</time>
      </trkpt>
      <trkpt lat="43.440496" lon="1.593429">
        <ele>195.2</ele>
        <time>2014-03-21T13:34:45Z</time>
      </trkpt>
      <trkpt lat="43.440580" lon="1.593539">
        <ele>194.4</ele>
        <time>2014-03-21T13:34:55Z</time>
      </trkpt>
      <trkpt lat="43.440645" lon="1.593657">
        <ele>194.0</ele>
        <time>2014-03-21T13:35:03Z</time>
      </trkpt>
      <trkpt lat="43.440704" lon="1.593777">
        <ele>193.4</ele>
        <time>2014-03-21T13:35:10Z</time>
      </trkpt>
      <trkpt lat="43.440777" lon="1.593887">
        <ele>192.7</ele>
        <time>2014-03-21T13:35:21Z</time>
      </trkpt>
      <trkpt lat="43.440848" lon="1.594012">
        <ele>192.0</ele>
        <time>2014-03-21T13:35:30Z</time>
      </trkpt>
      <trkpt lat="43.440857" lon="1.594099">
        <ele>191.9</ele>
        <time>2014-03-21T13:35:39Z</time>
      </trkpt>
      <trkpt lat="43.440763" lon="1.594178">
        <ele>191.3</ele>
        <time>2014-03-21T13:35:49Z</time>
      </trkpt>
      <trkpt lat="43.440674" lon="1.594302">
        <ele>190.5</ele>
        <time>2014-03-21T13:35:57Z</time>
      </trkpt>
      <trkpt lat="43.440600" lon="1.594374">
        <ele>190.0</ele>
        <time>2014-03-21T13:36:04Z</time>
      </trkpt>
      <trkpt lat="43.440523" lon="1.594507">
        <ele>188.9</ele>
        <time>2014-03-21T13:36:13Z</time>
      </trkpt>
      <trkpt lat="43.440452" lon="1.594609">
        <ele>188.6</ele>
        <time>2014-03-21T13:36:20Z</time>
      </trkpt>
      <trkpt lat="43.440373" lon="1.594688">
        <ele>187.9</ele>
        <time>2014-03-21T13:36:26Z</time>
      </trkpt>
      <trkpt lat="43.440310" lon="1.594776">
        <ele>187.4</ele>
        <time>2014-03-21T13:36:33Z</time>
      </trkpt>
      <trkpt lat="43.440230" lon="1.594877">
        <ele>187.1</ele>
        <time>2014-03-21T13:36:41Z</time>
      </trkpt>
      <trkpt lat="43.440142" lon="1.594946">
        <ele>187.2</ele>
        <time>2014-03-21T13:36:47Z</time>
      </trkpt>
      <trkpt lat="43.440082" lon="1.595032">
        <ele>186.6</ele>
        <time>2014-03-21T13:36:53Z</time>
      </trkpt>
      <trkpt lat="43.440018" lon="1.595115">
        <ele>186.4</ele>
        <time>2014-03-21T13:36:59Z</time>
      </trkpt>
      <trkpt lat="43.439944" lon="1.595196">
        <ele>185.8</ele>
        <time>2014-03-21T13:37:07Z</time>
      </trkpt>
      <trkpt lat="43.439873" lon="1.595277">
        <ele>185.4</ele>
        <time>2014-03-21T13:37:15Z</time>
      </trkpt>
      <trkpt lat="43.439792" lon="1.595370">
        <ele>185.4</ele>
        <time>2014-03-21T13:37:23Z</time>
      </trkpt>
      <trkpt lat="43.439723" lon="1.595479">
        <ele>185.7</ele>
        <time>2014-03-21T13:37:30Z</time>
      </trkpt>
      <trkpt lat="43.439663" lon="1.595598">
        <ele>185.4</ele>
        <time>2014-03-21T13:37:37Z</time>
      </trkpt>
      <trkpt lat="43.439572" lon="1.595716">
        <ele>184.8</ele>
        <time>2014-03-21T13:37:45Z</time>
      </trkpt>
      <trkpt lat="43.439466" lon="1.595802">
        <ele>184.4</ele>
        <time>2014-03-21T13:37:53Z</time>
      </trkpt>
      <trkpt lat="43.439397" lon="1.595901">
        <ele>184.3</ele>
        <time>2014-03-21T13:38:07Z</time>
      </trkpt>
      <trkpt lat="43.439391" lon="1.596054">
        <ele>184.9</ele>
        <time>2014-03-21T13:38:23Z</time>
      </trkpt>
      <trkpt lat="43.439341" lon="1.596245">
        <ele>185.3</ele>
        <time>2014-03-21T13:38:36Z</time>
      </trkpt>
      <trkpt lat="43.439291" lon="1.596386">
        <ele>185.3</ele>
        <time>2014-03-21T13:38:45Z</time>
      </trkpt>
      <trkpt lat="43.439219" lon="1.596518">
        <ele>185.0</ele>
        <time>2014-03-21T13:38:55Z</time>
      </trkpt>
      <trkpt lat="43.439167" lon="1.596642">
        <ele>185.0</ele>
        <time>2014-03-21T13:39:04Z</time>
      </trkpt>
      <trkpt lat="43.439105" lon="1.596800">
        <ele>185.0</ele>
        <time>2014-03-21T13:39:16Z</time>
      </trkpt>
      <trkpt lat="43.439120" lon="1.596914">
        <ele>185.4</ele>
        <time>2014-03-21T13:39:33Z</time>
      </trkpt>
      <trkpt lat="43.439211" lon="1.597009">
        <ele>185.8</ele>
        <time>2014-03-21T13:39:46Z</time>
      </trkpt>
      <trkpt lat="43.439355" lon="1.597105">
        <ele>186.5</ele>
        <time>2014-03-21T13:39:59Z</time>
      </trkpt>
      <trkpt lat="43.439521" lon="1.597230">
        <ele>186.9</ele>
        <time>2014-03-21T13:40:11Z</time>
      </trkpt>
      <trkpt lat="43.439629" lon="1.597354">
        <ele>187.0</ele>
        <time>2014-03-21T13:40:22Z</time>
      </trkpt>
      <trkpt lat="43.439703" lon="1.597480">
        <ele>187.5</ele>
        <time>2014-03-21T13:40:30Z</time>
      </trkpt>
      <trkpt lat="43.439777" lon="1.597604">
        <ele>187.7</ele>
        <time>2014-03-21T13:40:42Z</time>
      </trkpt>
      <trkpt lat="43.439841" lon="1.597749">
        <ele>187.3</ele>
        <time>2014-03-21T13:40:51Z</time>
      </trkpt>
      <trkpt lat="43.439901" lon="1.597891">
        <ele>186.9</ele>
        <time>2014-03-21T13:41:01Z</time>
      </trkpt>
      <trkpt lat="43.439963" lon="1.598018">
        <ele>186.5</ele>
        <time>2014-03-21T13:41:12Z</time>
      </trkpt>
      <trkpt lat="43.440019" lon="1.598201">
        <ele>185.5</ele>
        <time>2014-03-21T13:41:25Z</time>
      </trkpt>
      <trkpt lat="43.440066" lon="1.598406">
        <ele>185.1</ele>
        <time>2014-03-21T13:41:35Z</time>
      </trkpt>
      <trkpt lat="43.440127" lon="1.598562">
        <ele>184.3</ele>
        <time>2014-03-21T13:41:44Z</time>
      </trkpt>
      <trkpt lat="43.440186" lon="1.598732">
        <ele>184.0</ele>
        <time>2014-03-21T13:41:55Z</time>
      </trkpt>
      <trkpt lat="43.440302" lon="1.598865">
        <ele>183.2</ele>
        <time>2014-03-21T13:42:08Z</time>
      </trkpt>
      <trkpt lat="43.440447" lon="1.598963">
        <ele>182.7</ele>
        <time>2014-03-21T13:42:19Z</time>
      </trkpt>
      <trkpt lat="43.440564" lon="1.599062">
        <ele>182.3</ele>
        <time>2014-03-21T13:42:29Z</time>
      </trkpt>
      <trkpt lat="43.440697" lon="1.599129">
        <ele>182.2</ele>
        <time>2014-03-21T13:42:41Z</time>
      </trkpt>
      <trkpt lat="43.440816" lon="1.599203">
        <ele>181.1</ele>
        <time>2014-03-21T13:42:51Z</time>
      </trkpt>
      <trkpt lat="43.440983" lon="1.599279">
        <ele>180.3</ele>
        <time>2014-03-21T13:43:01Z</time>
      </trkpt>
      <trkpt lat="43.441108" lon="1.599365">
        <ele>180.1</ele>
        <time>2014-03-21T13:43:10Z</time>
      </trkpt>
      <trkpt lat="43.441243" lon="1.599400">
        <ele>179.9</ele>
        <time>2014-03-21T13:43:18Z</time>
      </trkpt>
      <trkpt lat="43.441351" lon="1.599445">
        <ele>179.4</ele>
        <time>2014-03-21T13:43:26Z</time>
      </trkpt>
      <trkpt lat="43.441452" lon="1.599474">
        <ele>178.7</ele>
        <time>2014-03-21T13:43:36Z</time>
      </trkpt>
      <trkpt lat="43.441559" lon="1.599526">
        <ele>178.4</ele>
        <time>2014-03-21T13:43:45Z</time>
      </trkpt>
      <trkpt lat="43.441633" lon="1.599612">
        <ele>178.2</ele>
        <time>2014-03-21T13:43:59Z</time>
      </trkpt>
      <trkpt lat="43.441670" lon="1.599744">
        <ele>178.2</ele>
        <time>2014-03-21T13:44:06Z</time>
      </trkpt>
      <trkpt lat="43.441773" lon="1.599791">
        <ele>178.3</ele>
        <time>2014-03-21T13:44:14Z</time>
      </trkpt>
      <trkpt lat="43.441904" lon="1.599833">
        <ele>178.0</ele>
        <time>2014-03-21T13:44:24Z</time>
      </trkpt>
      <trkpt lat="43.442024" lon="1.599870">
        <ele>177.6</ele>
        <time>2014-03-21T13:44:33Z</time>
      </trkpt>
      <trkpt lat="43.442171" lon="1.599920">
        <ele>177.2</ele>
        <time>2014-03-21T13:44:43Z</time>
      </trkpt>
      <trkpt lat="43.442279" lon="1.599966">
        <ele>177.3</ele>
        <time>2014-03-21T13:44:50Z</time>
      </trkpt>
      <trkpt lat="43.442396" lon="1.600010">
        <ele>177.1</ele>
        <time>2014-03-21T13:44:59Z</time>
      </trkpt>
      <trkpt lat="43.442520" lon="1.600044">
        <ele>177.2</ele>
        <time>2014-03-21T13:45:07Z</time>
      </trkpt>
      <trkpt lat="43.442630" lon="1.600064">
        <ele>177.1</ele>
        <time>2014-03-21T13:45:14Z</time>
      </trkpt>
      <trkpt lat="43.442740" lon="1.600070">
        <ele>176.7</ele>
        <time>2014-03-21T13:45:21Z</time>
      </trkpt>
      <trkpt lat="43.442852" lon="1.600096">
        <ele>176.9</ele>
        <time>2014-03-21T13:45:30Z</time>
      </trkpt>
      <trkpt lat="43.442979" lon="1.600142">
        <ele>177.0</ele>
        <time>2014-03-21T13:45:38Z</time>
      </trkpt>
      <trkpt lat="43.443069" lon="1.600199">
        <ele>176.9</ele>
        <time>2014-03-21T13:45:44Z</time>
      </trkpt>
      <trkpt lat="43.443139" lon="1.600275">
        <ele>176.7</ele>
        <time>2014-03-21T13:45:53Z</time>
        <name>En Causse</name>
      </trkpt>
      <trkpt lat="43.443264" lon="1.600344">
        <ele>175.5</ele>
        <time>2014-03-21T13:47:24Z</time>
      </trkpt>
      <trkpt lat="43.443345" lon="1.600434">
        <ele>175.8</ele>
        <time>2014-03-21T13:47:32Z</time>
      </trkpt>
      <trkpt lat="43.443454" lon="1.600519">
        <ele>175.9</ele>
        <time>2014-03-21T13:47:42Z</time>
      </trkpt>
      <trkpt lat="43.443567" lon="1.600587">
        <ele>175.7</ele>
        <time>2014-03-21T13:47:52Z</time>
      </trkpt>
      <trkpt lat="43.443673" lon="1.600679">
        <ele>175.7</ele>
        <time>2014-03-21T13:48:02Z</time>
      </trkpt>
      <trkpt lat="43.443766" lon="1.600763">
        <ele>175.5</ele>
        <time>2014-03-21T13:48:09Z</time>
      </trkpt>
      <trkpt lat="43.443872" lon="1.600814">
        <ele>175.6</ele>
        <time>2014-03-21T13:48:18Z</time>
      </trkpt>
      <trkpt lat="43.443978" lon="1.600854">
        <ele>175.3</ele>
        <time>2014-03-21T13:48:26Z</time>
      </trkpt>
      <trkpt lat="43.444075" lon="1.600865">
        <ele>175.2</ele>
        <time>2014-03-21T13:48:34Z</time>
      </trkpt>
      <trkpt lat="43.444194" lon="1.600834">
        <ele>175.5</ele>
        <time>2014-03-21T13:48:45Z</time>
      </trkpt>
      <trkpt lat="43.444296" lon="1.600795">
        <ele>175.6</ele>
        <time>2014-03-21T13:48:53Z</time>
      </trkpt>
      <trkpt lat="43.444402" lon="1.600727">
        <ele>175.5</ele>
        <time>2014-03-21T13:49:02Z</time>
      </trkpt>
      <trkpt lat="43.444484" lon="1.600683">
        <ele>175.8</ele>
        <time>2014-03-21T13:49:10Z</time>
      </trkpt>
      <trkpt lat="43.444597" lon="1.600613">
        <ele>176.4</ele>
        <time>2014-03-21T13:49:21Z</time>
      </trkpt>
      <trkpt lat="43.444723" lon="1.600540">
        <ele>177.1</ele>
        <time>2014-03-21T13:49:29Z</time>
      </trkpt>
      <trkpt lat="43.444810" lon="1.600473">
        <ele>177.3</ele>
        <time>2014-03-21T13:49:36Z</time>
      </trkpt>
      <trkpt lat="43.444908" lon="1.600426">
        <ele>177.8</ele>
        <time>2014-03-21T13:49:44Z</time>
      </trkpt>
      <trkpt lat="43.445023" lon="1.600421">
        <ele>177.8</ele>
        <time>2014-03-21T13:49:53Z</time>
      </trkpt>
      <trkpt lat="43.445145" lon="1.600324">
        <ele>177.1</ele>
        <time>2014-03-21T13:50:02Z</time>
      </trkpt>
      <trkpt lat="43.445237" lon="1.600217">
        <ele>176.8</ele>
        <time>2014-03-21T13:50:11Z</time>
      </trkpt>
      <trkpt lat="43.445329" lon="1.600109">
        <ele>176.3</ele>
        <time>2014-03-21T13:50:19Z</time>
      </trkpt>
      <trkpt lat="43.445419" lon="1.599946">
        <ele>176.1</ele>
        <time>2014-03-21T13:50:30Z</time>
      </trkpt>
      <trkpt lat="43.445504" lon="1.599812">
        <ele>175.8</ele>
        <time>2014-03-21T13:50:37Z</time>
      </trkpt>
      <trkpt lat="43.445593" lon="1.599707">
        <ele>175.6</ele>
        <time>2014-03-21T13:50:45Z</time>
      </trkpt>
      <trkpt lat="43.445675" lon="1.599604">
        <ele>175.4</ele>
        <time>2014-03-21T13:50:52Z</time>
      </trkpt>
      <trkpt lat="43.445757" lon="1.599515">
        <ele>175.5</ele>
        <time>2014-03-21T13:50:58Z</time>
      </trkpt>
      <trkpt lat="43.445829" lon="1.599422">
        <ele>175.2</ele>
        <time>2014-03-21T13:51:06Z</time>
      </trkpt>
      <trkpt lat="43.445910" lon="1.599278">
        <ele>175.2</ele>
        <time>2014-03-21T13:51:16Z</time>
      </trkpt>
      <trkpt lat="43.446007" lon="1.599156">
        <ele>175.2</ele>
        <time>2014-03-21T13:51:25Z</time>
      </trkpt>
      <trkpt lat="43.446092" lon="1.599065">
        <ele>175.3</ele>
        <time>2014-03-21T13:51:32Z</time>
      </trkpt>
      <trkpt lat="43.446181" lon="1.598994">
        <ele>175.1</ele>
        <time>2014-03-21T13:51:41Z</time>
      </trkpt>
      <trkpt lat="43.446289" lon="1.598916">
        <ele>174.9</ele>
        <time>2014-03-21T13:51:50Z</time>
      </trkpt>
      <trkpt lat="43.446395" lon="1.598852">
        <ele>174.9</ele>
        <time>2014-03-21T13:51:58Z</time>
      </trkpt>
      <trkpt lat="43.446487" lon="1.598793">
        <ele>175.1</ele>
        <time>2014-03-21T13:52:06Z</time>
      </trkpt>
      <trkpt lat="43.446578" lon="1.598710">
        <ele>175.3</ele>
        <time>2014-03-21T13:52:16Z</time>
      </trkpt>
      <trkpt lat="43.446664" lon="1.598591">
        <ele>175.4</ele>
        <time>2014-03-21T13:52:25Z</time>
      </trkpt>
      <trkpt lat="43.446756" lon="1.598463">
        <ele>175.6</ele>
        <time>2014-03-21T13:52:35Z</time>
      </trkpt>
      <trkpt lat="43.446804" lon="1.598560">
        <ele>175.6</ele>
        <time>2014-03-21T13:52:41Z</time>
      </trkpt>
      <trkpt lat="43.446817" lon="1.598679">
        <ele>175.5</ele>
        <time>2014-03-21T13:52:47Z</time>
      </trkpt>
      <trkpt lat="43.446900" lon="1.598804">
        <ele>175.5</ele>
        <time>2014-03-21T13:52:56Z</time>
      </trkpt>
      <trkpt lat="43.446940" lon="1.598932">
        <ele>175.3</ele>
        <time>2014-03-21T13:53:04Z</time>
      </trkpt>
      <trkpt lat="43.447021" lon="1.599023">
        <ele>174.8</ele>
        <time>2014-03-21T13:53:14Z</time>
        <name>Ecluse du Ticaille</name>
      </trkpt>
      <trkpt lat="43.446986" lon="1.599119">
        <ele>177.3</ele>
        <time>2014-03-21T13:53:29Z</time>
      </trkpt>
      <trkpt lat="43.446996" lon="1.599251">
        <ele>177.6</ele>
        <time>2014-03-21T13:54:16Z</time>
      </trkpt>
      <trkpt lat="43.447002" lon="1.599228">
        <ele>177.9</ele>
        <time>2014-03-21T13:54:43Z</time>
      </trkpt>
      <trkpt lat="43.446973" lon="1.599249">
        <ele>174.6</ele>
        <time>2014-03-21T13:55:08Z</time>
      </trkpt>
      <trkpt lat="43.446871" lon="1.599358">
        <ele>174.2</ele>
        <time>2014-03-21T13:55:21Z</time>
      </trkpt>
      <trkpt lat="43.446778" lon="1.599372">
        <ele>173.8</ele>
        <time>2014-03-21T13:55:30Z</time>
      </trkpt>
      <trkpt lat="43.446607" lon="1.599403">
        <ele>173.5</ele>
        <time>2014-03-21T13:55:44Z</time>
      </trkpt>
      <trkpt lat="43.446495" lon="1.599498">
        <ele>173.6</ele>
        <time>2014-03-21T13:55:58Z</time>
      </trkpt>
      <trkpt lat="43.446383" lon="1.599546">
        <ele>173.5</ele>
        <time>2014-03-21T13:56:10Z</time>
      </trkpt>
      <trkpt lat="43.446266" lon="1.599598">
        <ele>173.5</ele>
        <time>2014-03-21T13:56:19Z</time>
      </trkpt>
      <trkpt lat="43.446119" lon="1.599727">
        <ele>173.7</ele>
        <time>2014-03-21T13:56:33Z</time>
      </trkpt>
      <trkpt lat="43.446004" lon="1.599830">
        <ele>173.4</ele>
        <time>2014-03-21T13:56:44Z</time>
      </trkpt>
      <trkpt lat="43.445882" lon="1.599921">
        <ele>173.7</ele>
        <time>2014-03-21T13:56:54Z</time>
      </trkpt>
      <trkpt lat="43.445783" lon="1.600036">
        <ele>173.9</ele>
        <time>2014-03-21T13:57:01Z</time>
      </trkpt>
      <trkpt lat="43.445704" lon="1.600118">
        <ele>173.9</ele>
        <time>2014-03-21T13:57:08Z</time>
      </trkpt>
      <trkpt lat="43.445612" lon="1.600233">
        <ele>173.9</ele>
        <time>2014-03-21T13:57:20Z</time>
      </trkpt>
      <trkpt lat="43.445524" lon="1.600386">
        <ele>173.9</ele>
        <time>2014-03-21T13:57:33Z</time>
      </trkpt>
      <trkpt lat="43.445463" lon="1.600560">
        <ele>174.0</ele>
        <time>2014-03-21T13:57:45Z</time>
      </trkpt>
      <trkpt lat="43.445412" lon="1.600715">
        <ele>173.9</ele>
        <time>2014-03-21T13:57:56Z</time>
      </trkpt>
      <trkpt lat="43.445325" lon="1.600895">
        <ele>174.2</ele>
        <time>2014-03-21T13:58:05Z</time>
      </trkpt>
      <trkpt lat="43.445231" lon="1.601054">
        <ele>174.1</ele>
        <time>2014-03-21T13:58:13Z</time>
      </trkpt>
      <trkpt lat="43.445181" lon="1.601217">
        <ele>174.1</ele>
        <time>2014-03-21T13:58:19Z</time>
      </trkpt>
      <trkpt lat="43.445188" lon="1.601378">
        <ele>173.7</ele>
        <time>2014-03-21T13:58:27Z</time>
      </trkpt>
      <trkpt lat="43.445209" lon="1.601519">
        <ele>173.6</ele>
        <time>2014-03-21T13:58:33Z</time>
      </trkpt>
      <trkpt lat="43.445239" lon="1.601653">
        <ele>174.0</ele>
        <time>2014-03-21T13:58:40Z</time>
      </trkpt>
      <trkpt lat="43.445210" lon="1.601816">
        <ele>174.9</ele>
        <time>2014-03-21T13:58:51Z</time>
      </trkpt>
      <trkpt lat="43.445247" lon="1.601953">
        <ele>174.1</ele>
        <time>2014-03-21T13:58:58Z</time>
      </trkpt>
      <trkpt lat="43.445285" lon="1.602067">
        <ele>173.4</ele>
        <time>2014-03-21T13:59:06Z</time>
      </trkpt>
      <trkpt lat="43.445321" lon="1.602188">
        <ele>173.4</ele>
        <time>2014-03-21T13:59:15Z</time>
      </trkpt>
      <trkpt lat="43.445340" lon="1.602315">
        <ele>173.2</ele>
        <time>2014-03-21T13:59:24Z</time>
      </trkpt>
      <trkpt lat="43.445377" lon="1.602446">
        <ele>173.5</ele>
        <time>2014-03-21T13:59:33Z</time>
      </trkpt>
      <trkpt lat="43.445409" lon="1.602587">
        <ele>173.5</ele>
        <time>2014-03-21T13:59:42Z</time>
      </trkpt>
      <trkpt lat="43.445438" lon="1.602722">
        <ele>173.3</ele>
        <time>2014-03-21T13:59:52Z</time>
      </trkpt>
      <trkpt lat="43.445469" lon="1.602853">
        <ele>173.3</ele>
        <time>2014-03-21T14:00:02Z</time>
      </trkpt>
      <trkpt lat="43.445484" lon="1.602909">
        <ele>173.2</ele>
        <time>2014-03-21T14:00:36Z</time>
      </trkpt>
      <trkpt lat="43.445515" lon="1.603039">
        <ele>173.5</ele>
        <time>2014-03-21T14:00:47Z</time>
      </trkpt>
      <trkpt lat="43.445559" lon="1.603187">
        <ele>173.5</ele>
        <time>2014-03-21T14:00:57Z</time>
      </trkpt>
      <trkpt lat="43.445605" lon="1.603350">
        <ele>173.6</ele>
        <time>2014-03-21T14:01:09Z</time>
      </trkpt>
      <trkpt lat="43.445619" lon="1.603505">
        <ele>173.5</ele>
        <time>2014-03-21T14:01:18Z</time>
      </trkpt>
      <trkpt lat="43.445655" lon="1.603663">
        <ele>173.7</ele>
        <time>2014-03-21T14:01:29Z</time>
      </trkpt>
      <trkpt lat="43.445675" lon="1.603838">
        <ele>173.7</ele>
        <time>2014-03-21T14:01:40Z</time>
      </trkpt>
      <trkpt lat="43.445677" lon="1.604022">
        <ele>174.2</ele>
        <time>2014-03-21T14:01:52Z</time>
      </trkpt>
      <trkpt lat="43.445684" lon="1.604227">
        <ele>174.2</ele>
        <time>2014-03-21T14:02:03Z</time>
      </trkpt>
      <trkpt lat="43.445668" lon="1.604405">
        <ele>174.1</ele>
        <time>2014-03-21T14:02:20Z</time>
      </trkpt>
      <trkpt lat="43.445658" lon="1.604547">
        <ele>174.2</ele>
        <time>2014-03-21T14:02:29Z</time>
      </trkpt>
      <trkpt lat="43.445644" lon="1.604690">
        <ele>174.5</ele>
        <time>2014-03-21T14:02:37Z</time>
      </trkpt>
      <trkpt lat="43.445618" lon="1.604810">
        <ele>174.9</ele>
        <time>2014-03-21T14:02:44Z</time>
      </trkpt>
      <trkpt lat="43.445592" lon="1.604930">
        <ele>174.8</ele>
        <time>2014-03-21T14:02:51Z</time>
      </trkpt>
      <trkpt lat="43.445534" lon="1.605042">
        <ele>174.6</ele>
        <time>2014-03-21T14:02:59Z</time>
      </trkpt>
      <trkpt lat="43.445466" lon="1.605164">
        <ele>175.2</ele>
        <time>2014-03-21T14:03:06Z</time>
      </trkpt>
      <trkpt lat="43.445413" lon="1.605292">
        <ele>175.8</ele>
        <time>2014-03-21T14:03:15Z</time>
      </trkpt>
      <trkpt lat="43.445319" lon="1.605390">
        <ele>175.4</ele>
        <time>2014-03-21T14:03:23Z</time>
      </trkpt>
      <trkpt lat="43.445235" lon="1.605500">
        <ele>174.8</ele>
        <time>2014-03-21T14:03:33Z</time>
      </trkpt>
      <trkpt lat="43.445145" lon="1.605595">
        <ele>175.2</ele>
        <time>2014-03-21T14:03:40Z</time>
      </trkpt>
      <trkpt lat="43.445059" lon="1.605713">
        <ele>175.1</ele>
        <time>2014-03-21T14:03:48Z</time>
      </trkpt>
      <trkpt lat="43.444973" lon="1.605845">
        <ele>174.7</ele>
        <time>2014-03-21T14:03:57Z</time>
      </trkpt>
      <trkpt lat="43.444883" lon="1.605918">
        <ele>174.6</ele>
        <time>2014-03-21T14:04:05Z</time>
      </trkpt>
      <trkpt lat="43.444802" lon="1.606054">
        <ele>175.2</ele>
        <time>2014-03-21T14:04:14Z</time>
      </trkpt>
      <trkpt lat="43.444706" lon="1.606178">
        <ele>175.5</ele>
        <time>2014-03-21T14:04:24Z</time>
      </trkpt>
      <trkpt lat="43.444634" lon="1.606283">
        <ele>175.1</ele>
        <time>2014-03-21T14:04:32Z</time>
      </trkpt>
      <trkpt lat="43.444548" lon="1.606398">
        <ele>174.9</ele>
        <time>2014-03-21T14:04:43Z</time>
      </trkpt>
      <trkpt lat="43.444494" lon="1.606439">
        <ele>174.9</ele>
        <time>2014-03-21T14:05:50Z</time>
      </trkpt>
      <trkpt lat="43.444414" lon="1.606521">
        <ele>174.5</ele>
        <time>2014-03-21T14:06:01Z</time>
      </trkpt>
      <trkpt lat="43.444326" lon="1.606636">
        <ele>174.6</ele>
        <time>2014-03-21T14:06:12Z</time>
      </trkpt>
      <trkpt lat="43.444253" lon="1.606756">
        <ele>174.2</ele>
        <time>2014-03-21T14:06:21Z</time>
      </trkpt>
      <trkpt lat="43.444177" lon="1.606851">
        <ele>175.1</ele>
        <time>2014-03-21T14:06:30Z</time>
      </trkpt>
      <trkpt lat="43.444057" lon="1.606983">
        <ele>175.1</ele>
        <time>2014-03-21T14:06:43Z</time>
      </trkpt>
      <trkpt lat="43.443933" lon="1.607088">
        <ele>175.1</ele>
        <time>2014-03-21T14:06:56Z</time>
      </trkpt>
      <trkpt lat="43.443813" lon="1.607170">
        <ele>175.4</ele>
        <time>2014-03-21T14:07:08Z</time>
      </trkpt>
      <trkpt lat="43.443704" lon="1.607249">
        <ele>175.5</ele>
        <time>2014-03-21T14:07:19Z</time>
      </trkpt>
      <trkpt lat="43.443588" lon="1.607318">
        <ele>175.4</ele>
        <time>2014-03-21T14:07:29Z</time>
      </trkpt>
      <trkpt lat="43.443461" lon="1.607435">
        <ele>175.3</ele>
        <time>2014-03-21T14:07:38Z</time>
      </trkpt>
      <trkpt lat="43.443331" lon="1.607541">
        <ele>175.2</ele>
        <time>2014-03-21T14:07:48Z</time>
      </trkpt>
      <trkpt lat="43.443199" lon="1.607603">
        <ele>175.4</ele>
        <time>2014-03-21T14:07:58Z</time>
      </trkpt>
      <trkpt lat="43.443068" lon="1.607736">
        <ele>175.4</ele>
        <time>2014-03-21T14:08:10Z</time>
      </trkpt>
      <trkpt lat="43.443023" lon="1.607716">
        <ele>174.7</ele>
        <time>2014-03-21T14:08:52Z</time>
      </trkpt>
      <trkpt lat="43.442915" lon="1.607799">
        <ele>175.1</ele>
        <time>2014-03-21T14:09:02Z</time>
      </trkpt>
      <trkpt lat="43.442812" lon="1.607881">
        <ele>175.0</ele>
        <time>2014-03-21T14:09:11Z</time>
      </trkpt>
      <trkpt lat="43.442712" lon="1.608021">
        <ele>174.9</ele>
        <time>2014-03-21T14:09:21Z</time>
      </trkpt>
      <trkpt lat="43.442604" lon="1.608119">
        <ele>175.0</ele>
        <time>2014-03-21T14:09:31Z</time>
      </trkpt>
      <trkpt lat="43.442495" lon="1.608297">
        <ele>174.8</ele>
        <time>2014-03-21T14:09:44Z</time>
      </trkpt>
      <trkpt lat="43.442385" lon="1.608429">
        <ele>175.1</ele>
        <time>2014-03-21T14:09:55Z</time>
      </trkpt>
      <trkpt lat="43.442281" lon="1.608571">
        <ele>175.2</ele>
        <time>2014-03-21T14:10:08Z</time>
      </trkpt>
      <trkpt lat="43.442169" lon="1.608731">
        <ele>175.1</ele>
        <time>2014-03-21T14:10:20Z</time>
      </trkpt>
      <trkpt lat="43.442067" lon="1.608909">
        <ele>174.8</ele>
        <time>2014-03-21T14:10:32Z</time>
      </trkpt>
      <trkpt lat="43.441959" lon="1.609058">
        <ele>174.9</ele>
        <time>2014-03-21T14:10:44Z</time>
      </trkpt>
      <trkpt lat="43.441828" lon="1.609303">
        <ele>174.8</ele>
        <time>2014-03-21T14:10:58Z</time>
      </trkpt>
      <trkpt lat="43.441750" lon="1.609456">
        <ele>174.9</ele>
        <time>2014-03-21T14:11:10Z</time>
      </trkpt>
      <trkpt lat="43.441669" lon="1.609656">
        <ele>175.1</ele>
        <time>2014-03-21T14:11:21Z</time>
      </trkpt>
      <trkpt lat="43.441620" lon="1.609766">
        <ele>175.2</ele>
        <time>2014-03-21T14:11:30Z</time>
      </trkpt>
      <trkpt lat="43.441569" lon="1.609909">
        <ele>175.2</ele>
        <time>2014-03-21T14:11:41Z</time>
      </trkpt>
      <trkpt lat="43.441504" lon="1.610067">
        <ele>174.9</ele>
        <time>2014-03-21T14:11:55Z</time>
      </trkpt>
      <trkpt lat="43.441418" lon="1.610325">
        <ele>174.8</ele>
        <time>2014-03-21T14:12:09Z</time>
      </trkpt>
      <trkpt lat="43.441356" lon="1.610519">
        <ele>174.9</ele>
        <time>2014-03-21T14:12:22Z</time>
      </trkpt>
      <trkpt lat="43.441297" lon="1.610715">
        <ele>175.2</ele>
        <time>2014-03-21T14:12:32Z</time>
      </trkpt>
      <trkpt lat="43.441232" lon="1.610908">
        <ele>175.0</ele>
        <time>2014-03-21T14:12:45Z</time>
      </trkpt>
      <trkpt lat="43.441171" lon="1.611064">
        <ele>175.0</ele>
        <time>2014-03-21T14:12:55Z</time>
      </trkpt>
      <trkpt lat="43.441108" lon="1.611251">
        <ele>175.1</ele>
        <time>2014-03-21T14:13:07Z</time>
      </trkpt>
      <trkpt lat="43.441032" lon="1.611426">
        <ele>175.1</ele>
        <time>2014-03-21T14:13:16Z</time>
      </trkpt>
      <trkpt lat="43.440952" lon="1.611545">
        <ele>175.5</ele>
        <time>2014-03-21T14:13:26Z</time>
      </trkpt>
      <trkpt lat="43.440875" lon="1.611675">
        <ele>175.5</ele>
        <time>2014-03-21T14:13:35Z</time>
      </trkpt>
      <trkpt lat="43.440758" lon="1.611830">
        <ele>175.4</ele>
        <time>2014-03-21T14:13:45Z</time>
      </trkpt>
      <trkpt lat="43.440620" lon="1.611930">
        <ele>175.2</ele>
        <time>2014-03-21T14:13:56Z</time>
      </trkpt>
      <trkpt lat="43.440493" lon="1.612068">
        <ele>175.2</ele>
        <time>2014-03-21T14:14:09Z</time>
      </trkpt>
      <trkpt lat="43.440336" lon="1.612161">
        <ele>175.8</ele>
        <time>2014-03-21T14:14:21Z</time>
      </trkpt>
      <trkpt lat="43.440233" lon="1.612257">
        <ele>175.8</ele>
        <time>2014-03-21T14:14:31Z</time>
      </trkpt>
      <trkpt lat="43.440127" lon="1.612304">
        <ele>176.2</ele>
        <time>2014-03-21T14:14:40Z</time>
      </trkpt>
      <trkpt lat="43.440017" lon="1.612343">
        <ele>176.4</ele>
        <time>2014-03-21T14:14:48Z</time>
      </trkpt>
      <trkpt lat="43.439895" lon="1.612405">
        <ele>177.2</ele>
        <time>2014-03-21T14:14:57Z</time>
      </trkpt>
      <trkpt lat="43.439770" lon="1.612468">
        <ele>178.3</ele>
        <time>2014-03-21T14:15:07Z</time>
      </trkpt>
      <trkpt lat="43.439674" lon="1.612524">
        <ele>178.5</ele>
        <time>2014-03-21T14:15:16Z</time>
      </trkpt>
      <trkpt lat="43.439601" lon="1.612430">
        <ele>179.3</ele>
        <time>2014-03-21T14:15:25Z</time>
        <name>Ecluse du Sanglier</name>
      </trkpt>
      <trkpt lat="43.439589" lon="1.612300">
        <ele>180.9</ele>
        <time>2014-03-21T14:16:02Z</time>
      </trkpt>
      <trkpt lat="43.439526" lon="1.612190">
        <ele>180.1</ele>
        <time>2014-03-21T14:16:12Z</time>
      </trkpt>
      <trkpt lat="43.439480" lon="1.612178">
        <ele>163.9</ele>
        <time>2014-03-21T14:18:52Z</time>
      </trkpt>
      <trkpt lat="43.439375" lon="1.612171">
        <ele>163.7</ele>
        <time>2014-03-21T14:19:01Z</time>
      </trkpt>
      <trkpt lat="43.439273" lon="1.612240">
        <ele>163.4</ele>
        <time>2014-03-21T14:19:10Z</time>
      </trkpt>
      <trkpt lat="43.439177" lon="1.612303">
        <ele>163.8</ele>
        <time>2014-03-21T14:19:19Z</time>
      </trkpt>
      <trkpt lat="43.439091" lon="1.612344">
        <ele>163.6</ele>
        <time>2014-03-21T14:19:26Z</time>
      </trkpt>
      <trkpt lat="43.438990" lon="1.612414">
        <ele>163.9</ele>
        <time>2014-03-21T14:19:36Z</time>
      </trkpt>
      <trkpt lat="43.438899" lon="1.612506">
        <ele>164.5</ele>
        <time>2014-03-21T14:19:44Z</time>
      </trkpt>
      <trkpt lat="43.438810" lon="1.612555">
        <ele>164.4</ele>
        <time>2014-03-21T14:19:52Z</time>
      </trkpt>
      <trkpt lat="43.438704" lon="1.612630">
        <ele>164.2</ele>
        <time>2014-03-21T14:20:01Z</time>
      </trkpt>
      <trkpt lat="43.438600" lon="1.612695">
        <ele>164.6</ele>
        <time>2014-03-21T14:20:10Z</time>
      </trkpt>
      <trkpt lat="43.438493" lon="1.612745">
        <ele>164.5</ele>
        <time>2014-03-21T14:20:18Z</time>
      </trkpt>
      <trkpt lat="43.438406" lon="1.612810">
        <ele>164.4</ele>
        <time>2014-03-21T14:20:26Z</time>
      </trkpt>
      <trkpt lat="43.438325" lon="1.612904">
        <ele>164.4</ele>
        <time>2014-03-21T14:20:34Z</time>
      </trkpt>
      <trkpt lat="43.438260" lon="1.612982">
        <ele>164.5</ele>
        <time>2014-03-21T14:20:42Z</time>
      </trkpt>
      <trkpt lat="43.438175" lon="1.613084">
        <ele>164.7</ele>
        <time>2014-03-21T14:20:50Z</time>
      </trkpt>
      <trkpt lat="43.438093" lon="1.613153">
        <ele>165.1</ele>
        <time>2014-03-21T14:20:56Z</time>
      </trkpt>
      <trkpt lat="43.438033" lon="1.613252">
        <ele>165.0</ele>
        <time>2014-03-21T14:21:03Z</time>
      </trkpt>
      <trkpt lat="43.437968" lon="1.613355">
        <ele>164.8</ele>
        <time>2014-03-21T14:21:12Z</time>
      </trkpt>
      <trkpt lat="43.437899" lon="1.613459">
        <ele>164.6</ele>
        <time>2014-03-21T14:21:19Z</time>
      </trkpt>
      <trkpt lat="43.437806" lon="1.613536">
        <ele>164.9</ele>
        <time>2014-03-21T14:21:26Z</time>
      </trkpt>
      <trkpt lat="43.437727" lon="1.613627">
        <ele>164.9</ele>
        <time>2014-03-21T14:21:33Z</time>
      </trkpt>
      <trkpt lat="43.437653" lon="1.613723">
        <ele>164.9</ele>
        <time>2014-03-21T14:21:42Z</time>
      </trkpt>
      <trkpt lat="43.437571" lon="1.613816">
        <ele>165.2</ele>
        <time>2014-03-21T14:21:49Z</time>
      </trkpt>
      <trkpt lat="43.437496" lon="1.613919">
        <ele>165.3</ele>
        <time>2014-03-21T14:21:57Z</time>
      </trkpt>
      <trkpt lat="43.437413" lon="1.614012">
        <ele>165.5</ele>
        <time>2014-03-21T14:22:05Z</time>
      </trkpt>
      <trkpt lat="43.437329" lon="1.614095">
        <ele>165.7</ele>
        <time>2014-03-21T14:22:12Z</time>
      </trkpt>
      <trkpt lat="43.437227" lon="1.614122">
        <ele>165.9</ele>
        <time>2014-03-21T14:22:20Z</time>
      </trkpt>
      <trkpt lat="43.437127" lon="1.614109">
        <ele>165.8</ele>
        <time>2014-03-21T14:22:29Z</time>
      </trkpt>
      <trkpt lat="43.437032" lon="1.614113">
        <ele>167.8</ele>
        <time>2014-03-21T14:22:54Z</time>
      </trkpt>
      <trkpt lat="43.436939" lon="1.614116">
        <ele>167.0</ele>
        <time>2014-03-21T14:23:02Z</time>
      </trkpt>
      <trkpt lat="43.436844" lon="1.614122">
        <ele>168.5</ele>
        <time>2014-03-21T14:23:11Z</time>
      </trkpt>
      <trkpt lat="43.436753" lon="1.614138">
        <ele>169.1</ele>
        <time>2014-03-21T14:23:20Z</time>
      </trkpt>
      <trkpt lat="43.436661" lon="1.614127">
        <ele>170.3</ele>
        <time>2014-03-21T14:23:29Z</time>
      </trkpt>
      <trkpt lat="43.436554" lon="1.614146">
        <ele>171.2</ele>
        <time>2014-03-21T14:23:38Z</time>
      </trkpt>
      <trkpt lat="43.436448" lon="1.614166">
        <ele>171.7</ele>
        <time>2014-03-21T14:23:47Z</time>
      </trkpt>
      <trkpt lat="43.436355" lon="1.614139">
        <ele>172.1</ele>
        <time>2014-03-21T14:23:55Z</time>
      </trkpt>
      <trkpt lat="43.436266" lon="1.614064">
        <ele>172.1</ele>
        <time>2014-03-21T14:24:04Z</time>
      </trkpt>
      <trkpt lat="43.436295" lon="1.613920">
        <ele>173.0</ele>
        <time>2014-03-21T14:24:13Z</time>
      </trkpt>
      <trkpt lat="43.436332" lon="1.613786">
        <ele>173.9</ele>
        <time>2014-03-21T14:24:22Z</time>
      </trkpt>
      <trkpt lat="43.436387" lon="1.613632">
        <ele>174.7</ele>
        <time>2014-03-21T14:24:33Z</time>
      </trkpt>
      <trkpt lat="43.436433" lon="1.613481">
        <ele>175.6</ele>
        <time>2014-03-21T14:24:43Z</time>
      </trkpt>
      <trkpt lat="43.436455" lon="1.613355">
        <ele>176.0</ele>
        <time>2014-03-21T14:24:51Z</time>
      </trkpt>
      <trkpt lat="43.436476" lon="1.613219">
        <ele>176.5</ele>
        <time>2014-03-21T14:25:00Z</time>
      </trkpt>
      <trkpt lat="43.436511" lon="1.613102">
        <ele>177.4</ele>
        <time>2014-03-21T14:25:09Z</time>
      </trkpt>
      <trkpt lat="43.436549" lon="1.612976">
        <ele>178.2</ele>
        <time>2014-03-21T14:25:18Z</time>
      </trkpt>
      <trkpt lat="43.436578" lon="1.612857">
        <ele>179.1</ele>
        <time>2014-03-21T14:25:27Z</time>
      </trkpt>
      <trkpt lat="43.436614" lon="1.612725">
        <ele>180.5</ele>
        <time>2014-03-21T14:25:36Z</time>
      </trkpt>
      <trkpt lat="43.436650" lon="1.612590">
        <ele>181.9</ele>
        <time>2014-03-21T14:25:45Z</time>
      </trkpt>
      <trkpt lat="43.436684" lon="1.612462">
        <ele>182.9</ele>
        <time>2014-03-21T14:25:53Z</time>
      </trkpt>
      <trkpt lat="43.436714" lon="1.612333">
        <ele>184.0</ele>
        <time>2014-03-21T14:26:01Z</time>
      </trkpt>
      <trkpt lat="43.436749" lon="1.612210">
        <ele>185.3</ele>
        <time>2014-03-21T14:26:09Z</time>
      </trkpt>
      <trkpt lat="43.436775" lon="1.612079">
        <ele>186.5</ele>
        <time>2014-03-21T14:26:17Z</time>
      </trkpt>
      <trkpt lat="43.436804" lon="1.611952">
        <ele>187.1</ele>
        <time>2014-03-21T14:26:25Z</time>
      </trkpt>
      <trkpt lat="43.436830" lon="1.611816">
        <ele>188.4</ele>
        <time>2014-03-21T14:26:33Z</time>
      </trkpt>
      <trkpt lat="43.436861" lon="1.611680">
        <ele>189.5</ele>
        <time>2014-03-21T14:26:41Z</time>
      </trkpt>
      <trkpt lat="43.436894" lon="1.611548">
        <ele>190.3</ele>
        <time>2014-03-21T14:26:49Z</time>
      </trkpt>
      <trkpt lat="43.436917" lon="1.611417">
        <ele>191.0</ele>
        <time>2014-03-21T14:26:58Z</time>
      </trkpt>
      <trkpt lat="43.436947" lon="1.611294">
        <ele>191.3</ele>
        <time>2014-03-21T14:27:05Z</time>
      </trkpt>
      <trkpt lat="43.436979" lon="1.611167">
        <ele>191.5</ele>
        <time>2014-03-21T14:27:13Z</time>
      </trkpt>
      <trkpt lat="43.437015" lon="1.611041">
        <ele>191.7</ele>
        <time>2014-03-21T14:27:21Z</time>
      </trkpt>
      <trkpt lat="43.437043" lon="1.610917">
        <ele>191.7</ele>
        <time>2014-03-21T14:27:29Z</time>
      </trkpt>
      <trkpt lat="43.437080" lon="1.610796">
        <ele>191.7</ele>
        <time>2014-03-21T14:27:38Z</time>
      </trkpt>
      <trkpt lat="43.437115" lon="1.610673">
        <ele>192.3</ele>
        <time>2014-03-21T14:27:47Z</time>
      </trkpt>
      <trkpt lat="43.437134" lon="1.610547">
        <ele>192.1</ele>
        <time>2014-03-21T14:27:57Z</time>
      </trkpt>
      <trkpt lat="43.437138" lon="1.610405">
        <ele>192.1</ele>
        <time>2014-03-21T14:28:06Z</time>
      </trkpt>
      <trkpt lat="43.437099" lon="1.610277">
        <ele>191.9</ele>
        <time>2014-03-21T14:28:15Z</time>
      </trkpt>
      <trkpt lat="43.437032" lon="1.610180">
        <ele>191.6</ele>
        <time>2014-03-21T14:28:23Z</time>
      </trkpt>
      <trkpt lat="43.436937" lon="1.610098">
        <ele>191.1</ele>
        <time>2014-03-21T14:28:32Z</time>
      </trkpt>
      <trkpt lat="43.436874" lon="1.610006">
        <ele>190.3</ele>
        <time>2014-03-21T14:28:39Z</time>
      </trkpt>
      <trkpt lat="43.436787" lon="1.609930">
        <ele>188.9</ele>
        <time>2014-03-21T14:28:50Z</time>
      </trkpt>
      <trkpt lat="43.436729" lon="1.609843">
        <ele>189.6</ele>
        <time>2014-03-21T14:29:21Z</time>
      </trkpt>
      <trkpt lat="43.436662" lon="1.609760">
        <ele>189.4</ele>
        <time>2014-03-21T14:29:29Z</time>
      </trkpt>
      <trkpt lat="43.436574" lon="1.609669">
        <ele>189.2</ele>
        <time>2014-03-21T14:29:39Z</time>
      </trkpt>
      <trkpt lat="43.436491" lon="1.609568">
        <ele>189.1</ele>
        <time>2014-03-21T14:29:48Z</time>
      </trkpt>
      <trkpt lat="43.436407" lon="1.609468">
        <ele>189.2</ele>
        <time>2014-03-21T14:29:57Z</time>
      </trkpt>
      <trkpt lat="43.436349" lon="1.609358">
        <ele>188.9</ele>
        <time>2014-03-21T14:30:05Z</time>
      </trkpt>
      <trkpt lat="43.436277" lon="1.609250">
        <ele>188.8</ele>
        <time>2014-03-21T14:30:13Z</time>
      </trkpt>
      <trkpt lat="43.436292" lon="1.609131">
        <ele>188.5</ele>
        <time>2014-03-21T14:30:21Z</time>
      </trkpt>
      <trkpt lat="43.436332" lon="1.609019">
        <ele>187.9</ele>
        <time>2014-03-21T14:30:29Z</time>
      </trkpt>
      <trkpt lat="43.436368" lon="1.608899">
        <ele>186.9</ele>
        <time>2014-03-21T14:30:38Z</time>
      </trkpt>
      <trkpt lat="43.436427" lon="1.608783">
        <ele>186.0</ele>
        <time>2014-03-21T14:30:46Z</time>
      </trkpt>
      <trkpt lat="43.436485" lon="1.608667">
        <ele>184.8</ele>
        <time>2014-03-21T14:30:55Z</time>
      </trkpt>
      <trkpt lat="43.436543" lon="1.608556">
        <ele>183.9</ele>
        <time>2014-03-21T14:31:03Z</time>
      </trkpt>
      <trkpt lat="43.436586" lon="1.608444">
        <ele>182.8</ele>
        <time>2014-03-21T14:31:10Z</time>
      </trkpt>
      <trkpt lat="43.436632" lon="1.608340">
        <ele>181.9</ele>
        <time>2014-03-21T14:31:17Z</time>
      </trkpt>
      <trkpt lat="43.436685" lon="1.608236">
        <ele>180.9</ele>
        <time>2014-03-21T14:31:24Z</time>
      </trkpt>
      <trkpt lat="43.436738" lon="1.608130">
        <ele>180.1</ele>
        <time>2014-03-21T14:31:32Z</time>
      </trkpt>
      <trkpt lat="43.436794" lon="1.608014">
        <ele>179.4</ele>
        <time>2014-03-21T14:31:39Z</time>
      </trkpt>
      <trkpt lat="43.436851" lon="1.607897">
        <ele>178.5</ele>
        <time>2014-03-21T14:31:47Z</time>
      </trkpt>
      <trkpt lat="43.436909" lon="1.607789">
        <ele>178.0</ele>
        <time>2014-03-21T14:31:54Z</time>
      </trkpt>
      <trkpt lat="43.436952" lon="1.607686">
        <ele>177.6</ele>
        <time>2014-03-21T14:32:00Z</time>
      </trkpt>
      <trkpt lat="43.436991" lon="1.607575">
        <ele>177.5</ele>
        <time>2014-03-21T14:32:07Z</time>
      </trkpt>
      <trkpt lat="43.437039" lon="1.607460">
        <ele>177.2</ele>
        <time>2014-03-21T14:32:15Z</time>
      </trkpt>
      <trkpt lat="43.437092" lon="1.607340">
        <ele>176.9</ele>
        <time>2014-03-21T14:32:23Z</time>
      </trkpt>
      <trkpt lat="43.437144" lon="1.607232">
        <ele>176.8</ele>
        <time>2014-03-21T14:32:31Z</time>
      </trkpt>
      <trkpt lat="43.437190" lon="1.607122">
        <ele>176.7</ele>
        <time>2014-03-21T14:32:38Z</time>
      </trkpt>
      <trkpt lat="43.437236" lon="1.607014">
        <ele>176.7</ele>
        <time>2014-03-21T14:32:45Z</time>
      </trkpt>
      <trkpt lat="43.437283" lon="1.606914">
        <ele>176.4</ele>
        <time>2014-03-21T14:32:52Z</time>
      </trkpt>
      <trkpt lat="43.437319" lon="1.606805">
        <ele>176.1</ele>
        <time>2014-03-21T14:32:59Z</time>
      </trkpt>
      <trkpt lat="43.437371" lon="1.606707">
        <ele>176.0</ele>
        <time>2014-03-21T14:33:06Z</time>
      </trkpt>
      <trkpt lat="43.437420" lon="1.606603">
        <ele>176.0</ele>
        <time>2014-03-21T14:33:13Z</time>
      </trkpt>
      <trkpt lat="43.437467" lon="1.606507">
        <ele>175.9</ele>
        <time>2014-03-21T14:33:20Z</time>
      </trkpt>
      <trkpt lat="43.437528" lon="1.606397">
        <ele>175.6</ele>
        <time>2014-03-21T14:33:28Z</time>
      </trkpt>
      <trkpt lat="43.437571" lon="1.606291">
        <ele>176.2</ele>
        <time>2014-03-21T14:33:36Z</time>
      </trkpt>
      <trkpt lat="43.437612" lon="1.606170">
        <ele>176.2</ele>
        <time>2014-03-21T14:33:44Z</time>
      </trkpt>
      <trkpt lat="43.437679" lon="1.606061">
        <ele>175.6</ele>
        <time>2014-03-21T14:33:52Z</time>
      </trkpt>
      <trkpt lat="43.437734" lon="1.605963">
        <ele>175.6</ele>
        <time>2014-03-21T14:33:59Z</time>
      </trkpt>
      <trkpt lat="43.437787" lon="1.605836">
        <ele>175.4</ele>
        <time>2014-03-21T14:34:08Z</time>
      </trkpt>
      <trkpt lat="43.437836" lon="1.605728">
        <ele>175.0</ele>
        <time>2014-03-21T14:34:15Z</time>
      </trkpt>
      <trkpt lat="43.437895" lon="1.605611">
        <ele>174.7</ele>
        <time>2014-03-21T14:34:22Z</time>
      </trkpt>
      <trkpt lat="43.437930" lon="1.605481">
        <ele>174.4</ele>
        <time>2014-03-21T14:34:30Z</time>
      </trkpt>
      <trkpt lat="43.437980" lon="1.605369">
        <ele>174.1</ele>
        <time>2014-03-21T14:34:38Z</time>
      </trkpt>
      <trkpt lat="43.438011" lon="1.605232">
        <ele>173.4</ele>
        <time>2014-03-21T14:34:46Z</time>
      </trkpt>
      <trkpt lat="43.438027" lon="1.605110">
        <ele>172.8</ele>
        <time>2014-03-21T14:34:54Z</time>
      </trkpt>
      <trkpt lat="43.438037" lon="1.604984">
        <ele>172.1</ele>
        <time>2014-03-21T14:35:01Z</time>
      </trkpt>
      <trkpt lat="43.438046" lon="1.604855">
        <ele>171.6</ele>
        <time>2014-03-21T14:35:10Z</time>
      </trkpt>
      <trkpt lat="43.438059" lon="1.604724">
        <ele>171.1</ele>
        <time>2014-03-21T14:35:18Z</time>
      </trkpt>
      <trkpt lat="43.438077" lon="1.604583">
        <ele>170.7</ele>
        <time>2014-03-21T14:35:27Z</time>
      </trkpt>
      <trkpt lat="43.438081" lon="1.604446">
        <ele>170.5</ele>
        <time>2014-03-21T14:35:36Z</time>
      </trkpt>
      <trkpt lat="43.438093" lon="1.604324">
        <ele>170.0</ele>
        <time>2014-03-21T14:35:43Z</time>
      </trkpt>
      <trkpt lat="43.438105" lon="1.604189">
        <ele>169.6</ele>
        <time>2014-03-21T14:35:51Z</time>
      </trkpt>
      <trkpt lat="43.438116" lon="1.604054">
        <ele>169.2</ele>
        <time>2014-03-21T14:35:59Z</time>
      </trkpt>
      <trkpt lat="43.438123" lon="1.603930">
        <ele>168.8</ele>
        <time>2014-03-21T14:36:07Z</time>
      </trkpt>
      <trkpt lat="43.438136" lon="1.603798">
        <ele>168.3</ele>
        <time>2014-03-21T14:36:15Z</time>
      </trkpt>
      <trkpt lat="43.438142" lon="1.603668">
        <ele>168.9</ele>
        <time>2014-03-21T14:36:23Z</time>
      </trkpt>
      <trkpt lat="43.438136" lon="1.603517">
        <ele>168.6</ele>
        <time>2014-03-21T14:36:32Z</time>
      </trkpt>
      <trkpt lat="43.438172" lon="1.603416">
        <ele>168.8</ele>
        <time>2014-03-21T14:36:42Z</time>
      </trkpt>
      <trkpt lat="43.438132" lon="1.603291">
        <ele>167.9</ele>
        <time>2014-03-21T14:36:54Z</time>
      </trkpt>
      <trkpt lat="43.438119" lon="1.603173">
        <ele>167.6</ele>
        <time>2014-03-21T14:37:45Z</time>
      </trkpt>
      <trkpt lat="43.437998" lon="1.603107">
        <ele>167.7</ele>
        <time>2014-03-21T14:37:55Z</time>
      </trkpt>
      <trkpt lat="43.437902" lon="1.603029">
        <ele>167.7</ele>
        <time>2014-03-21T14:38:04Z</time>
      </trkpt>
      <trkpt lat="43.437815" lon="1.602951">
        <ele>167.4</ele>
        <time>2014-03-21T14:38:11Z</time>
      </trkpt>
      <trkpt lat="43.437726" lon="1.602885">
        <ele>167.3</ele>
        <time>2014-03-21T14:38:20Z</time>
      </trkpt>
      <trkpt lat="43.437623" lon="1.602807">
        <ele>166.6</ele>
        <time>2014-03-21T14:38:28Z</time>
      </trkpt>
      <trkpt lat="43.437527" lon="1.602689">
        <ele>166.1</ele>
        <time>2014-03-21T14:38:37Z</time>
      </trkpt>
      <trkpt lat="43.437441" lon="1.602613">
        <ele>166.0</ele>
        <time>2014-03-21T14:38:45Z</time>
      </trkpt>
      <trkpt lat="43.437347" lon="1.602555">
        <ele>165.8</ele>
        <time>2014-03-21T14:38:54Z</time>
      </trkpt>
      <trkpt lat="43.437273" lon="1.602478">
        <ele>165.8</ele>
        <time>2014-03-21T14:39:02Z</time>
      </trkpt>
      <trkpt lat="43.437178" lon="1.602397">
        <ele>165.6</ele>
        <time>2014-03-21T14:39:10Z</time>
      </trkpt>
      <trkpt lat="43.437084" lon="1.602337">
        <ele>165.5</ele>
        <time>2014-03-21T14:39:18Z</time>
      </trkpt>
      <trkpt lat="43.436992" lon="1.602279">
        <ele>166.0</ele>
        <time>2014-03-21T14:39:26Z</time>
      </trkpt>
      <trkpt lat="43.436919" lon="1.602197">
        <ele>166.5</ele>
        <time>2014-03-21T14:39:33Z</time>
      </trkpt>
      <trkpt lat="43.436897" lon="1.602068">
        <ele>166.7</ele>
        <time>2014-03-21T14:39:41Z</time>
      </trkpt>
      <trkpt lat="43.436850" lon="1.601963">
        <ele>166.5</ele>
        <time>2014-03-21T14:39:48Z</time>
      </trkpt>
      <trkpt lat="43.436766" lon="1.601914">
        <ele>166.5</ele>
        <time>2014-03-21T14:39:55Z</time>
      </trkpt>
      <trkpt lat="43.436673" lon="1.601870">
        <ele>167.2</ele>
        <time>2014-03-21T14:40:03Z</time>
      </trkpt>
      <trkpt lat="43.436563" lon="1.601813">
        <ele>167.2</ele>
        <time>2014-03-21T14:40:14Z</time>
      </trkpt>
      <trkpt lat="43.436482" lon="1.601717">
        <ele>167.1</ele>
        <time>2014-03-21T14:40:25Z</time>
      </trkpt>
      <trkpt lat="43.436385" lon="1.601625">
        <ele>168.1</ele>
        <time>2014-03-21T14:40:37Z</time>
      </trkpt>
      <trkpt lat="43.436289" lon="1.601516">
        <ele>168.3</ele>
        <time>2014-03-21T14:40:49Z</time>
      </trkpt>
      <trkpt lat="43.436198" lon="1.601424">
        <ele>167.9</ele>
        <time>2014-03-21T14:40:57Z</time>
      </trkpt>
      <trkpt lat="43.436124" lon="1.601323">
        <ele>167.6</ele>
        <time>2014-03-21T14:41:05Z</time>
      </trkpt>
      <trkpt lat="43.436060" lon="1.601209">
        <ele>168.6</ele>
        <time>2014-03-21T14:41:14Z</time>
      </trkpt>
      <trkpt lat="43.436042" lon="1.601073">
        <ele>168.5</ele>
        <time>2014-03-21T14:41:22Z</time>
      </trkpt>
      <trkpt lat="43.436103" lon="1.600968">
        <ele>168.7</ele>
        <time>2014-03-21T14:41:30Z</time>
      </trkpt>
      <trkpt lat="43.436192" lon="1.600879">
        <ele>168.9</ele>
        <time>2014-03-21T14:41:39Z</time>
      </trkpt>
      <trkpt lat="43.436282" lon="1.600804">
        <ele>168.7</ele>
        <time>2014-03-21T14:41:48Z</time>
      </trkpt>
      <trkpt lat="43.436378" lon="1.600743">
        <ele>168.4</ele>
        <time>2014-03-21T14:41:57Z</time>
      </trkpt>
      <trkpt lat="43.436465" lon="1.600674">
        <ele>167.9</ele>
        <time>2014-03-21T14:42:06Z</time>
      </trkpt>
      <trkpt lat="43.436561" lon="1.600592">
        <ele>167.4</ele>
        <time>2014-03-21T14:42:14Z</time>
      </trkpt>
      <trkpt lat="43.436618" lon="1.600491">
        <ele>167.0</ele>
        <time>2014-03-21T14:42:21Z</time>
      </trkpt>
      <trkpt lat="43.436660" lon="1.600344">
        <ele>166.9</ele>
        <time>2014-03-21T14:42:31Z</time>
      </trkpt>
      <trkpt lat="43.436701" lon="1.600213">
        <ele>166.8</ele>
        <time>2014-03-21T14:42:40Z</time>
      </trkpt>
      <trkpt lat="43.436748" lon="1.600086">
        <ele>166.6</ele>
        <time>2014-03-21T14:42:48Z</time>
      </trkpt>
      <trkpt lat="43.436785" lon="1.599951">
        <ele>166.5</ele>
        <time>2014-03-21T14:42:57Z</time>
      </trkpt>
      <trkpt lat="43.436786" lon="1.599785">
        <ele>166.3</ele>
        <time>2014-03-21T14:43:06Z</time>
      </trkpt>
      <trkpt lat="43.436736" lon="1.599670">
        <ele>166.0</ele>
        <time>2014-03-21T14:43:13Z</time>
      </trkpt>
      <trkpt lat="43.436683" lon="1.599567">
        <ele>166.5</ele>
        <time>2014-03-21T14:43:21Z</time>
      </trkpt>
      <trkpt lat="43.436644" lon="1.599450">
        <ele>167.2</ele>
        <time>2014-03-21T14:43:29Z</time>
      </trkpt>
      <trkpt lat="43.436602" lon="1.599328">
        <ele>167.0</ele>
        <time>2014-03-21T14:43:38Z</time>
      </trkpt>
      <trkpt lat="43.436574" lon="1.599180">
        <ele>167.5</ele>
        <time>2014-03-21T14:43:48Z</time>
      </trkpt>
      <trkpt lat="43.436565" lon="1.599038">
        <ele>167.7</ele>
        <time>2014-03-21T14:43:59Z</time>
      </trkpt>
      <trkpt lat="43.436595" lon="1.598821">
        <ele>167.9</ele>
        <time>2014-03-21T14:44:11Z</time>
      </trkpt>
      <trkpt lat="43.436671" lon="1.598716">
        <ele>167.9</ele>
        <time>2014-03-21T14:44:20Z</time>
      </trkpt>
      <trkpt lat="43.436737" lon="1.598619">
        <ele>167.8</ele>
        <time>2014-03-21T14:44:28Z</time>
      </trkpt>
      <trkpt lat="43.436805" lon="1.598516">
        <ele>167.5</ele>
        <time>2014-03-21T14:44:37Z</time>
      </trkpt>
      <trkpt lat="43.436875" lon="1.598373">
        <ele>167.4</ele>
        <time>2014-03-21T14:44:49Z</time>
      </trkpt>
      <trkpt lat="43.436960" lon="1.598277">
        <ele>167.0</ele>
        <time>2014-03-21T14:44:57Z</time>
      </trkpt>
      <trkpt lat="43.437040" lon="1.598181">
        <ele>166.4</ele>
        <time>2014-03-21T14:45:06Z</time>
      </trkpt>
      <trkpt lat="43.437091" lon="1.598002">
        <ele>166.1</ele>
        <time>2014-03-21T14:45:14Z</time>
      </trkpt>
      <trkpt lat="43.437159" lon="1.597859">
        <ele>166.0</ele>
        <time>2014-03-21T14:45:24Z</time>
      </trkpt>
      <trkpt lat="43.437232" lon="1.597740">
        <ele>165.6</ele>
        <time>2014-03-21T14:45:34Z</time>
      </trkpt>
      <trkpt lat="43.437325" lon="1.597687">
        <ele>165.8</ele>
        <time>2014-03-21T14:45:41Z</time>
      </trkpt>
      <trkpt lat="43.437432" lon="1.597645">
        <ele>165.7</ele>
        <time>2014-03-21T14:45:49Z</time>
      </trkpt>
      <trkpt lat="43.437531" lon="1.597634">
        <ele>165.8</ele>
        <time>2014-03-21T14:45:57Z</time>
      </trkpt>
      <trkpt lat="43.437626" lon="1.597627">
        <ele>165.5</ele>
        <time>2014-03-21T14:46:04Z</time>
      </trkpt>
      <trkpt lat="43.437719" lon="1.597562">
        <ele>165.3</ele>
        <time>2014-03-21T14:46:14Z</time>
      </trkpt>
      <trkpt lat="43.437809" lon="1.597579">
        <ele>166.0</ele>
        <time>2014-03-21T14:46:45Z</time>
      </trkpt>
      <trkpt lat="43.437830" lon="1.597479">
        <ele>165.8</ele>
        <time>2014-03-21T14:46:58Z</time>
      </trkpt>
      <trkpt lat="43.437871" lon="1.597350">
        <ele>166.0</ele>
        <time>2014-03-21T14:47:07Z</time>
      </trkpt>
      <trkpt lat="43.437921" lon="1.597207">
        <ele>166.5</ele>
        <time>2014-03-21T14:47:17Z</time>
      </trkpt>
      <trkpt lat="43.437962" lon="1.597086">
        <ele>166.8</ele>
        <time>2014-03-21T14:47:26Z</time>
      </trkpt>
      <trkpt lat="43.438090" lon="1.596970">
        <ele>167.4</ele>
        <time>2014-03-21T14:47:36Z</time>
      </trkpt>
      <trkpt lat="43.438182" lon="1.596981">
        <ele>167.8</ele>
        <time>2014-03-21T14:47:47Z</time>
      </trkpt>
    </trkseg>
  </trk>
</gpx>

